sensor_id;sensor_type;location;lat;lon;timestamp;temperature;humidity
54558;DHT22;40452;50.080;20.040;2023-02-28T04:13:41;19.90;32.70
54558;DHT22;40452;50.080;20.040;2023-02-28T04:16:07;20.10;33.20
54558;DHT22;40452;50.080;20.040;2023-02-28T04:18:38;20.10;33.10
54558;DHT22;40452;50.080;20.040;2023-02-28T04:21:05;20.10;33.30
54558;DHT22;40452;50.080;20.040;2023-02-28T04:23:31;20.20;33.40
54558;DHT22;40452;50.080;20.040;2023-02-28T04:25:56;20.20;33.50
54558;DHT22;40452;50.080;20.040;2023-02-28T04:28:22;20.20;33.50
54558;DHT22;40452;50.080;20.040;2023-02-28T04:30:54;20.20;33.50
54558;DHT22;40452;50.080;20.040;2023-02-28T04:33:20;20.20;33.50
54558;DHT22;40452;50.080;20.040;2023-02-28T04:35:45;20.20;33.50
54558;DHT22;40452;50.080;20.040;2023-02-28T04:38:11;20.20;33.50
54558;DHT22;40452;50.080;20.040;2023-02-28T04:40:36;20.20;33.50
54558;DHT22;40452;50.080;20.040;2023-02-28T04:43:02;20.20;33.50
54558;DHT22;40452;50.080;20.040;2023-02-28T04:45:28;20.20;33.50
54558;DHT22;40452;50.080;20.040;2023-02-28T04:47:57;20.30;33.60
54558;DHT22;40452;50.080;20.040;2023-02-28T04:50:23;20.20;33.50
54558;DHT22;40452;50.080;20.040;2023-02-28T04:52:48;20.20;33.50
54558;DHT22;40452;50.080;20.040;2023-02-28T04:55:14;20.20;33.50
54558;DHT22;40452;50.080;20.040;2023-02-28T04:57:40;20.10;33.40
54558;DHT22;40452;50.080;20.040;2023-02-28T05:00:08;20.20;33.40
54558;DHT22;40452;50.080;20.040;2023-02-28T05:02:37;20.20;33.40
54558;DHT22;40452;50.080;20.040;2023-02-28T05:05:02;20.20;33.50
54558;DHT22;40452;50.080;20.040;2023-02-28T05:07:28;20.20;33.50
54558;DHT22;40452;50.080;20.040;2023-02-28T05:09:53;20.20;33.50
54558;DHT22;40452;50.080;20.040;2023-02-28T05:12:19;20.20;33.50
54558;DHT22;40452;50.080;20.040;2023-02-28T05:14:45;20.20;33.50
54558;DHT22;40452;50.080;20.040;2023-02-28T05:17:10;20.20;33.50
54558;DHT22;40452;50.080;20.040;2023-02-28T05:19:36;20.20;33.50
54558;DHT22;40452;50.080;20.040;2023-02-28T05:22:01;20.20;33.60
54558;DHT22;40452;50.080;20.040;2023-02-28T05:24:28;20.20;33.60
54558;DHT22;40452;50.080;20.040;2023-02-28T05:26:54;20.20;33.60
54558;DHT22;40452;50.080;20.040;2023-02-28T05:29:20;20.30;33.70
54558;DHT22;40452;50.080;20.040;2023-02-28T05:31:46;20.30;33.70
54558;DHT22;40452;50.080;20.040;2023-02-28T05:34:11;20.20;33.70
54558;DHT22;40452;50.080;20.040;2023-02-28T05:36:38;20.30;33.80
54558;DHT22;40452;50.080;20.040;2023-02-28T05:39:05;20.30;33.80
54558;DHT22;40452;50.080;20.040;2023-02-28T05:41:31;20.30;33.90
54558;DHT22;40452;50.080;20.040;2023-02-28T05:43:57;20.30;33.90
54558;DHT22;40452;50.080;20.040;2023-02-28T05:46:22;20.30;34.00
54558;DHT22;40452;50.080;20.040;2023-02-28T05:48:48;20.30;34.00
54558;DHT22;40452;50.080;20.040;2023-02-28T05:51:14;20.30;34.00
54558;DHT22;40452;50.080;20.040;2023-02-28T05:53:39;20.30;34.00
54558;DHT22;40452;50.080;20.040;2023-02-28T05:56:05;20.30;34.00
54558;DHT22;40452;50.080;20.040;2023-02-28T05:58:31;20.30;34.00
54558;DHT22;40452;50.080;20.040;2023-02-28T06:01:00;20.30;34.00
54558;DHT22;40452;50.080;20.040;2023-02-28T06:03:43;19.90;30.90
54558;DHT22;40452;50.080;20.040;2023-02-28T06:06:09;16.10;29.80
54558;DHT22;40452;50.080;20.040;2023-02-28T06:08:34;14.60;31.20
54558;DHT22;40452;50.080;20.040;2023-02-28T06:11:03;13.60;32.00
54558;DHT22;40452;50.080;20.040;2023-02-28T06:13:28;12.80;32.60
54558;DHT22;40452;50.080;20.040;2023-02-28T06:15:54;11.60;33.60
54558;DHT22;40452;50.080;20.040;2023-02-28T06:18:19;11.00;34.50
54558;DHT22;40452;50.080;20.040;2023-02-28T06:20:54;10.90;35.20
54558;DHT22;40452;50.080;20.040;2023-02-28T06:23:20;10.70;36.10
54558;DHT22;40452;50.080;20.040;2023-02-28T06:25:46;12.70;36.90
54558;DHT22;40452;50.080;20.040;2023-02-28T06:28:12;14.20;36.50
54558;DHT22;40452;50.080;20.040;2023-02-28T06:30:38;15.20;35.70
54558;DHT22;40452;50.080;20.040;2023-02-28T06:33:03;15.90;35.10
54558;DHT22;40452;50.080;20.040;2023-02-28T06:35:29;16.40;34.80
54558;DHT22;40452;50.080;20.040;2023-02-28T06:37:55;16.70;34.60
54558;DHT22;40452;50.080;20.040;2023-02-28T06:40:20;17.00;34.50
54558;DHT22;40452;50.080;20.040;2023-02-28T06:42:46;17.20;34.50
54558;DHT22;40452;50.080;20.040;2023-02-28T06:45:11;17.40;34.40
54558;DHT22;40452;50.080;20.040;2023-02-28T06:47:39;17.50;34.40
54558;DHT22;40452;50.080;20.040;2023-02-28T06:50:06;17.70;34.40
54558;DHT22;40452;50.080;20.040;2023-02-28T06:52:34;17.80;34.40
54558;DHT22;40452;50.080;20.040;2023-02-28T06:55:05;17.90;34.40
54558;DHT22;40452;50.080;20.040;2023-02-28T06:57:31;18.10;34.30
54558;DHT22;40452;50.080;20.040;2023-02-28T06:59:59;18.20;34.30
54558;DHT22;40452;50.080;20.040;2023-02-28T07:02:24;18.20;34.30
54558;DHT22;40452;50.080;20.040;2023-02-28T07:04:50;18.40;34.40
54558;DHT22;40452;50.080;20.040;2023-02-28T07:07:16;18.40;34.40
54558;DHT22;40452;50.080;20.040;2023-02-28T07:09:41;18.50;34.40
54558;DHT22;40452;50.080;20.040;2023-02-28T07:12:07;18.60;34.40
54558;DHT22;40452;50.080;20.040;2023-02-28T07:14:32;18.60;34.30
54558;DHT22;40452;50.080;20.040;2023-02-28T07:16:58;18.70;34.30
54558;DHT22;40452;50.080;20.040;2023-02-28T07:19:23;18.80;34.30
54558;DHT22;40452;50.080;20.040;2023-02-28T07:21:49;18.80;34.30
54558;DHT22;40452;50.080;20.040;2023-02-28T07:24:14;18.90;34.30
54558;DHT22;40452;50.080;20.040;2023-02-28T07:26:41;18.90;34.20
54558;DHT22;40452;50.080;20.040;2023-02-28T07:29:06;18.90;34.20
54558;DHT22;40452;50.080;20.040;2023-02-28T07:31:32;19.00;34.30
54558;DHT22;40452;50.080;20.040;2023-02-28T07:33:58;19.00;34.20
54558;DHT22;40452;50.080;20.040;2023-02-28T07:36:23;19.00;34.30
54558;DHT22;40452;50.080;20.040;2023-02-28T07:38:49;19.10;34.30
54558;DHT22;40452;50.080;20.040;2023-02-28T07:41:19;19.10;34.20
54558;DHT22;40452;50.080;20.040;2023-02-28T07:43:45;19.10;34.20
54558;DHT22;40452;50.080;20.040;2023-02-28T07:46:13;19.20;34.20
54558;DHT22;40452;50.080;20.040;2023-02-28T07:48:40;19.20;34.20
54558;DHT22;40452;50.080;20.040;2023-02-28T07:51:06;19.20;34.20
54558;DHT22;40452;50.080;20.040;2023-02-28T07:53:31;19.20;34.20
54558;DHT22;40452;50.080;20.040;2023-02-28T07:55:58;19.20;34.20
54558;DHT22;40452;50.080;20.040;2023-02-28T07:58:25;19.30;34.20
54558;DHT22;40452;50.080;20.040;2023-02-28T08:00:51;19.30;34.20
54558;DHT22;40452;50.080;20.040;2023-02-28T08:03:20;19.30;34.10
54558;DHT22;40452;50.080;20.040;2023-02-28T08:05:46;19.30;34.10
54558;DHT22;40452;50.080;20.040;2023-02-28T08:08:13;19.40;34.20
54558;DHT22;40452;50.080;20.040;2023-02-28T15:35:43;20.30;33.60
54558;DHT22;40452;50.080;20.040;2023-02-28T15:38:18;20.10;33.40
54558;DHT22;40452;50.080;20.040;2023-02-28T15:40:54;20.00;33.30
54558;DHT22;40452;50.080;20.040;2023-02-28T15:43:34;20.00;33.80
54558;DHT22;40452;50.080;20.040;2023-02-28T15:46:03;20.10;33.90
54558;DHT22;40452;50.080;20.040;2023-02-28T15:49:03;20.10;34.00
54558;DHT22;40452;50.080;20.040;2023-02-28T15:51:27;20.20;34.10
54558;DHT22;40452;50.080;20.040;2023-02-28T15:54:19;20.20;34.30
54558;DHT22;40452;50.080;20.040;2023-02-28T15:56:45;20.30;34.60
54558;DHT22;40452;50.080;20.040;2023-02-28T15:59:29;20.30;34.80
54558;DHT22;40452;50.080;20.040;2023-02-28T16:07:24;20.30;36.30
54558;DHT22;40452;50.080;20.040;2023-02-28T16:09:50;20.40;36.00
54558;DHT22;40452;50.080;20.040;2023-02-28T16:12:16;20.40;36.60
54558;DHT22;40452;50.080;20.040;2023-02-28T16:14:41;20.40;36.50
54558;DHT22;40452;50.080;20.040;2023-02-28T16:17:20;20.40;36.80
54558;DHT22;40452;50.080;20.040;2023-02-28T16:19:46;20.50;37.30
54558;DHT22;40452;50.080;20.040;2023-02-28T16:22:12;20.50;37.70
54558;DHT22;40452;50.080;20.040;2023-02-28T16:24:37;20.50;37.60
54558;DHT22;40452;50.080;20.040;2023-02-28T16:27:04;20.50;37.70
54558;DHT22;40452;50.080;20.040;2023-02-28T16:29:32;20.60;37.80
54558;DHT22;40452;50.080;20.040;2023-02-28T16:32:00;20.50;38.00
54558;DHT22;40452;50.080;20.040;2023-02-28T16:34:26;20.50;37.90
54558;DHT22;40452;50.080;20.040;2023-02-28T16:36:52;20.60;38.30
54558;DHT22;40452;50.080;20.040;2023-02-28T16:39:17;20.60;39.00
54558;DHT22;40452;50.080;20.040;2023-02-28T16:41:47;20.60;38.70
54558;DHT22;40452;50.080;20.040;2023-02-28T16:44:24;20.60;38.80
54558;DHT22;40452;50.080;20.040;2023-02-28T16:46:51;20.70;38.80
54558;DHT22;40452;50.080;20.040;2023-02-28T16:49:17;20.60;38.70
54558;DHT22;40452;50.080;20.040;2023-02-28T16:51:42;20.60;38.50
54558;DHT22;40452;50.080;20.040;2023-02-28T16:54:08;20.60;38.80
54558;DHT22;40452;50.080;20.040;2023-02-28T16:56:34;20.60;38.70
54558;DHT22;40452;50.080;20.040;2023-02-28T16:59:01;20.60;38.80
54558;DHT22;40452;50.080;20.040;2023-02-28T17:01:27;20.60;38.80
54558;DHT22;40452;50.080;20.040;2023-02-28T17:03:54;20.60;38.80
54558;DHT22;40452;50.080;20.040;2023-02-28T17:06:26;20.60;38.70
54558;DHT22;40452;50.080;20.040;2023-02-28T17:08:53;20.60;38.70
54558;DHT22;40452;50.080;20.040;2023-02-28T17:11:19;20.60;38.60
54558;DHT22;40452;50.080;20.040;2023-02-28T17:13:45;20.50;38.60
54558;DHT22;40452;50.080;20.040;2023-02-28T17:16:25;20.60;38.70
54558;DHT22;40452;50.080;20.040;2023-02-28T17:18:53;20.50;38.50
54558;DHT22;40452;50.080;20.040;2023-02-28T17:21:18;20.60;38.50
54558;DHT22;40452;50.080;20.040;2023-02-28T17:23:44;20.60;38.50
54558;DHT22;40452;50.080;20.040;2023-02-28T17:26:13;20.50;38.40
54558;DHT22;40452;50.080;20.040;2023-02-28T17:28:39;20.50;38.30
54558;DHT22;40452;50.080;20.040;2023-02-28T17:31:04;20.50;38.30
54558;DHT22;40452;50.080;20.040;2023-02-28T17:33:30;20.60;38.30
54558;DHT22;40452;50.080;20.040;2023-02-28T17:36:03;20.50;38.20
54558;DHT22;40452;50.080;20.040;2023-02-28T17:38:29;20.50;38.20
54558;DHT22;40452;50.080;20.040;2023-02-28T17:40:58;20.50;38.10
54558;DHT22;40452;50.080;20.040;2023-02-28T17:43:25;20.50;38.10
54558;DHT22;40452;50.080;20.040;2023-02-28T17:45:51;20.50;38.10
54558;DHT22;40452;50.080;20.040;2023-02-28T17:48:17;20.40;38.00
54558;DHT22;40452;50.080;20.040;2023-02-28T17:50:42;20.50;38.10
54558;DHT22;40452;50.080;20.040;2023-02-28T17:53:08;20.50;38.00
54558;DHT22;40452;50.080;20.040;2023-02-28T17:55:33;20.50;38.00
54558;DHT22;40452;50.080;20.040;2023-02-28T17:58:00;20.50;38.00
54558;DHT22;40452;50.080;20.040;2023-02-28T18:00:25;20.50;37.90
54558;DHT22;40452;50.080;20.040;2023-02-28T18:02:51;20.50;37.90
54558;DHT22;40452;50.080;20.040;2023-02-28T18:05:17;20.50;37.90
54558;DHT22;40452;50.080;20.040;2023-02-28T18:07:42;20.60;37.90
54558;DHT22;40452;50.080;20.040;2023-02-28T18:10:19;20.50;37.80
54558;DHT22;40452;50.080;20.040;2023-02-28T18:12:50;20.50;37.80
54558;DHT22;40452;50.080;20.040;2023-02-28T18:15:17;20.50;37.80
54558;DHT22;40452;50.080;20.040;2023-02-28T18:17:45;20.50;37.80
54558;DHT22;40452;50.080;20.040;2023-02-28T18:20:11;20.50;37.80
54558;DHT22;40452;50.080;20.040;2023-02-28T18:22:37;20.50;37.80
54558;DHT22;40452;50.080;20.040;2023-02-28T18:25:05;20.50;37.80
54558;DHT22;40452;50.080;20.040;2023-02-28T18:27:31;20.60;37.80
54558;DHT22;40452;50.080;20.040;2023-02-28T18:29:57;20.50;37.80
54558;DHT22;40452;50.080;20.040;2023-02-28T18:32:22;20.50;37.70
54558;DHT22;40452;50.080;20.040;2023-02-28T18:34:48;20.50;37.70
54558;DHT22;40452;50.080;20.040;2023-02-28T18:37:14;20.50;37.70
54558;DHT22;40452;50.080;20.040;2023-02-28T18:39:40;20.60;37.80
54558;DHT22;40452;50.080;20.040;2023-02-28T18:42:06;20.50;38.40
54558;DHT22;40452;50.080;20.040;2023-02-28T18:44:31;20.50;37.70
54558;DHT22;40452;50.080;20.040;2023-02-28T18:46:57;20.50;37.70
54558;DHT22;40452;50.080;20.040;2023-02-28T18:49:22;20.60;37.70
54558;DHT22;40452;50.080;20.040;2023-02-28T18:52:00;20.50;37.80
54558;DHT22;40452;50.080;20.040;2023-02-28T18:54:58;20.50;37.70
54558;DHT22;40452;50.080;20.040;2023-02-28T18:57:23;20.50;37.70
54558;DHT22;40452;50.080;20.040;2023-02-28T18:59:49;20.60;37.80
54558;DHT22;40452;50.080;20.040;2023-02-28T19:02:14;20.60;37.80
54558;DHT22;40452;50.080;20.040;2023-02-28T19:04:40;20.60;37.80
54558;DHT22;40452;50.080;20.040;2023-02-28T19:07:06;20.50;37.80
54558;DHT22;40452;50.080;20.040;2023-02-28T19:09:32;20.60;37.90
54558;DHT22;40452;50.080;20.040;2023-02-28T19:11:57;20.50;37.80
54558;DHT22;40452;50.080;20.040;2023-02-28T19:14:23;20.50;37.80
54558;DHT22;40452;50.080;20.040;2023-02-28T19:16:48;20.50;37.80
54558;DHT22;40452;50.080;20.040;2023-02-28T19:19:15;20.50;37.80
54558;DHT22;40452;50.080;20.040;2023-02-28T19:21:40;20.60;37.80
54558;DHT22;40452;50.080;20.040;2023-02-28T19:24:06;20.60;37.90
54558;DHT22;40452;50.080;20.040;2023-02-28T19:26:31;20.60;37.80
54558;DHT22;40452;50.080;20.040;2023-02-28T19:28:57;20.60;37.80
54558;DHT22;40452;50.080;20.040;2023-02-28T19:31:24;20.60;37.90
54558;DHT22;40452;50.080;20.040;2023-02-28T19:33:50;20.60;37.90
54558;DHT22;40452;50.080;20.040;2023-02-28T19:36:19;20.60;37.90
54558;DHT22;40452;50.080;20.040;2023-02-28T19:38:45;20.60;37.90
54558;DHT22;40452;50.080;20.040;2023-02-28T19:41:12;20.60;37.90
54558;DHT22;40452;50.080;20.040;2023-02-28T19:43:39;20.60;37.90
54558;DHT22;40452;50.080;20.040;2023-02-28T19:46:05;20.60;38.00
54558;DHT22;40452;50.080;20.040;2023-02-28T19:48:34;20.60;38.00
54558;DHT22;40452;50.080;20.040;2023-02-28T19:51:06;20.60;38.00
54558;DHT22;40452;50.080;20.040;2023-02-28T19:53:36;20.60;38.00
54558;DHT22;40452;50.080;20.040;2023-02-28T19:56:02;20.60;38.00
54558;DHT22;40452;50.080;20.040;2023-02-28T19:58:31;20.60;38.40
54558;DHT22;40452;50.080;20.040;2023-02-28T20:01:05;20.60;38.00
54558;DHT22;40452;50.080;20.040;2023-02-28T20:03:31;20.60;38.10
54558;DHT22;40452;50.080;20.040;2023-02-28T20:06:03;20.60;38.10
54558;DHT22;40452;50.080;20.040;2023-02-28T20:08:29;20.60;38.10
54558;DHT22;40452;50.080;20.040;2023-02-28T20:10:54;20.70;38.20
54558;DHT22;40452;50.080;20.040;2023-02-28T20:13:20;20.60;38.10
